sensor_id;sensor_type;location;lat;lon;timestamp;pressure;altitude;pressure_sealevel;temperature;humidity
62712;BME280;48772;55.586;37.730;2022-11-28T00:02:15;101311.50;;;-3.03;100.00
62712;BME280;48772;55.586;37.730;2022-11-28T00:04:41;101307.16;;;-3.07;100.00
62712;BME280;48772;55.586;37.730;2022-11-28T00:07:09;101313.22;;;-3.08;100.00
62712;BME280;48772;55.586;37.730;2022-11-28T00:09:34;101314.97;;;-3.07;100.00
62712;BME280;48772;55.586;37.730;2022-11-28T00:12:00;101310.59;;;-3.08;100.00
62712;BME280;48772;55.586;37.730;2022-11-28T00:14:26;101324.53;;;-3.09;100.00
62712;BME280;48772;55.586;37.730;2022-11-28T00:16:52;101315.81;;;-3.11;100.00
62712;BME280;48772;55.586;37.730;2022-11-28T00:19:18;101321.03;;;-3.10;100.00
62712;BME280;48772;55.586;37.730;2022-11-28T00:21:44;101314.94;;;-3.15;100.00
62712;BME280;48772;55.586;37.730;2022-11-28T00:24:10;101305.41;;;-3.14;100.00
62712;BME280;48772;55.586;37.730;2022-11-28T00:26:37;101308.00;;;-3.14;100.00
62712;BME280;48772;55.586;37.730;2022-11-28T00:29:04;101300.19;;;-3.14;100.00
62712;BME280;48772;55.586;37.730;2022-11-28T00:31:33;101307.09;;;-3.19;100.00
62712;BME280;48772;55.586;37.730;2022-11-28T00:34:00;101302.75;;;-3.20;100.00
62712;BME280;48772;55.586;37.730;2022-11-28T00:36:29;101304.50;;;-3.21;100.00
62712;BME280;48772;55.586;37.730;2022-11-28T00:38:55;101301.88;;;-3.22;100.00
62712;BME280;48772;55.586;37.730;2022-11-28T00:41:22;101301.88;;;-3.22;100.00
62712;BME280;48772;55.586;37.730;2022-11-28T00:43:48;101293.22;;;-3.21;100.00
62712;BME280;48772;55.586;37.730;2022-11-28T00:46:14;101296.69;;;-3.25;100.00
62712;BME280;48772;55.586;37.730;2022-11-28T00:48:40;101307.13;;;-3.25;100.00
62712;BME280;48772;55.586;37.730;2022-11-28T00:51:16;101307.97;;;-3.22;100.00
62712;BME280;48772;55.586;37.730;2022-11-28T00:53:43;101315.81;;;-3.23;100.00
62712;BME280;48772;55.586;37.730;2022-11-28T00:56:10;101307.13;;;-3.25;100.00
62712;BME280;48772;55.586;37.730;2022-11-28T00:58:36;101307.97;;;-3.26;100.00
62712;BME280;48772;55.586;37.730;2022-11-28T01:01:06;101300.13;;;-3.26;100.00
62712;BME280;48772;55.586;37.730;2022-11-28T01:03:33;101308.84;;;-3.27;100.00
62712;BME280;48772;55.586;37.730;2022-11-28T01:05:58;101300.16;;;-3.23;100.00
62712;BME280;48772;55.586;37.730;2022-11-28T01:08:24;101301.03;;;-3.24;100.00
62712;BME280;48772;55.586;37.730;2022-11-28T01:10:50;101309.72;;;-3.27;100.00
62712;BME280;48772;55.586;37.730;2022-11-28T01:13:25;101306.25;;;-3.24;100.00
62712;BME280;48772;55.586;37.730;2022-11-28T01:15:51;101287.13;;;-3.29;100.00
62712;BME280;48772;55.586;37.730;2022-11-28T01:18:17;101299.25;;;-3.36;100.00
62712;BME280;48772;55.586;37.730;2022-11-28T01:20:42;101307.94;;;-3.40;100.00
62712;BME280;48772;55.586;37.730;2022-11-28T01:23:08;101292.31;;;-3.47;100.00
62712;BME280;48772;55.586;37.730;2022-11-28T01:25:34;101315.75;;;-3.45;100.00
62712;BME280;48772;55.586;37.730;2022-11-28T01:27:59;101318.38;;;-3.46;100.00
62712;BME280;48772;55.586;37.730;2022-11-28T01:30:25;101320.97;;;-3.47;100.00
62712;BME280;48772;55.586;37.730;2022-11-28T01:32:51;101318.38;;;-3.46;100.00
62712;BME280;48772;55.586;37.730;2022-11-28T01:35:17;101322.69;;;-3.53;100.00
62712;BME280;48772;55.586;37.730;2022-11-28T01:37:43;101323.53;;;-3.57;100.00
62712;BME280;48772;55.586;37.730;2022-11-28T01:40:11;101326.16;;;-3.57;100.00
62712;BME280;48772;55.586;37.730;2022-11-28T01:42:38;101327.91;;;-3.59;100.00
62712;BME280;48772;55.586;37.730;2022-11-28T01:45:14;101327.88;;;-3.62;100.00
62712;BME280;48772;55.586;37.730;2022-11-28T01:47:40;101326.16;;;-3.57;100.00
62712;BME280;48772;55.586;37.730;2022-11-28T01:50:07;101321.81;;;-3.56;100.00
62712;BME280;48772;55.586;37.730;2022-11-28T01:52:33;101317.47;;;-3.57;100.00
62712;BME280;48772;55.586;37.730;2022-11-28T01:55:00;101325.28;;;-3.54;100.00
62712;BME280;48772;55.586;37.730;2022-11-28T01:57:29;101325.28;;;-3.59;100.00
62712;BME280;48772;55.586;37.730;2022-11-28T01:59:56;101327.88;;;-3.63;100.00
62712;BME280;48772;55.586;37.730;2022-11-28T02:02:31;101320.03;;;-3.65;100.00
62712;BME280;48772;55.586;37.730;2022-11-28T02:04:58;101319.16;;;-3.67;100.00
62712;BME280;48772;55.586;37.730;2022-11-28T02:07:24;101316.56;;;-3.65;100.00
62712;BME280;48772;55.586;37.730;2022-11-28T02:09:50;101326.09;;;-3.72;100.00
62712;BME280;48772;55.586;37.730;2022-11-28T02:30:04;101326.06;;;-3.78;100.00
62712;BME280;48772;55.586;37.730;2022-11-28T02:48:04;101341.69;;;-3.84;100.00
62712;BME280;48772;55.586;37.730;2022-11-28T02:50:34;101333.84;;;-3.87;100.00
62712;BME280;48772;55.586;37.730;2022-11-28T02:53:04;101346.88;;;-3.87;100.00
62712;BME280;48772;55.586;37.730;2022-11-28T02:55:31;101347.75;;;-3.83;100.00
62712;BME280;48772;55.586;37.730;2022-11-28T02:57:56;101347.75;;;-3.86;100.00
62712;BME280;48772;55.586;37.730;2022-11-28T03:00:29;101355.59;;;-3.85;100.00
62712;BME280;48772;55.586;37.730;2022-11-28T03:13:23;101360.81;;;-3.85;100.00
62712;BME280;48772;55.586;37.730;2022-11-28T03:15:54;101357.31;;;-3.87;100.00
62712;BME280;48772;55.586;37.730;2022-11-28T03:18:25;101358.19;;;-3.88;100.00
62712;BME280;48772;55.586;37.730;2022-11-28T03:20:56;101364.22;;;-3.93;100.00
62712;BME280;48772;55.586;37.730;2022-11-28T03:26:15;101365.94;;;-3.94;100.00
62712;BME280;48772;55.586;37.730;2022-11-28T03:31:15;101372.03;;;-3.95;100.00
62712;BME280;48772;55.586;37.730;2022-11-28T03:33:43;101364.25;;;-3.92;100.00
62712;BME280;48772;55.586;37.730;2022-11-28T03:38:39;101365.94;;;-3.94;100.00
62712;BME280;48772;55.586;37.730;2022-11-28T03:41:07;101372.03;;;-3.96;100.00
62712;BME280;48772;55.586;37.730;2022-11-28T03:43:40;101369.44;;;-3.92;100.00
62712;BME280;48772;55.586;37.730;2022-11-28T03:46:09;101376.41;;;-3.88;100.00
62712;BME280;48772;55.586;37.730;2022-11-28T03:48:50;101385.06;;;-3.95;100.00
62712;BME280;48772;55.586;37.730;2022-11-28T03:51:21;101373.75;;;-3.97;100.00
62712;BME280;48772;55.586;37.730;2022-11-28T03:56:21;101379.81;;;-4.01;100.00
62712;BME280;48772;55.586;37.730;2022-11-28T03:59:10;101383.31;;;-3.99;100.00
62712;BME280;48772;55.586;37.730;2022-11-28T04:07:10;101385.03;;;-3.96;100.00
62712;BME280;48772;55.586;37.730;2022-11-28T04:10:41;101382.41;;;-4.01;100.00
62712;BME280;48772;55.586;37.730;2022-11-28T04:18:18;101386.78;;;-3.97;100.00
62712;BME280;48772;55.586;37.730;2022-11-28T04:24:14;101394.63;;;-3.92;100.00
62712;BME280;48772;55.586;37.730;2022-11-28T04:27:02;101392.88;;;-3.90;100.00
62712;BME280;48772;55.586;37.730;2022-11-28T04:33:00;101400.75;;;-3.84;100.00
62712;BME280;48772;55.586;37.730;2022-11-28T04:36:49;101394.66;;;-3.86;100.00
62712;BME280;48772;55.586;37.730;2022-11-28T04:39:22;101407.72;;;-3.85;100.00
62712;BME280;48772;55.586;37.730;2022-11-28T04:50:20;101405.09;;;-3.80;100.00
62712;BME280;48772;55.586;37.730;2022-11-28T04:53:00;101411.19;;;-3.80;100.00
62712;BME280;48772;55.586;37.730;2022-11-28T04:55:33;101416.41;;;-3.80;100.00
62712;BME280;48772;55.586;37.730;2022-11-28T04:58:07;101411.19;;;-3.80;100.00
62712;BME280;48772;55.586;37.730;2022-11-28T05:00:36;101419.03;;;-3.77;100.00
62712;BME280;48772;55.586;37.730;2022-11-28T05:03:03;101410.31;;;-3.79;100.00
62712;BME280;48772;55.586;37.730;2022-11-28T05:05:30;101425.97;;;-3.76;100.00
62712;BME280;48772;55.586;37.730;2022-11-28T05:07:57;101416.44;;;-3.74;100.00
62712;BME280;48772;55.586;37.730;2022-11-28T05:10:24;101424.28;;;-3.74;100.00
62712;BME280;48772;55.586;37.730;2022-11-28T05:12:50;101421.66;;;-3.77;100.00
62712;BME280;48772;55.586;37.730;2022-11-28T05:15:16;101418.13;;;-3.79;100.00
62712;BME280;48772;55.586;37.730;2022-11-28T05:17:45;101429.44;;;-3.81;100.00
62712;BME280;48772;55.586;37.730;2022-11-28T05:20:14;101437.25;;;-3.80;100.00
62712;BME280;48772;55.586;37.730;2022-11-28T05:22:40;101437.25;;;-3.80;100.00
62712;BME280;48772;55.586;37.730;2022-11-28T05:25:07;101438.13;;;-3.78;100.00
62712;BME280;48772;55.586;37.730;2022-11-28T05:27:34;101431.19;;;-3.76;100.00
62712;BME280;48772;55.586;37.730;2022-11-28T05:30:01;101438.09;;;-3.85;100.00
62712;BME280;48772;55.586;37.730;2022-11-28T05:32:29;101454.63;;;-3.80;100.00
62712;BME280;48772;55.586;37.730;2022-11-28T05:35:09;101463.34;;;-3.77;100.00
62712;BME280;48772;55.586;37.730;2022-11-28T05:37:35;101461.59;;;-3.79;100.00
62712;BME280;48772;55.586;37.730;2022-11-28T05:40:01;101470.25;;;-3.85;100.00
62712;BME280;48772;55.586;37.730;2022-11-28T05:42:32;101468.50;;;-3.83;100.00
62712;BME280;48772;55.586;37.730;2022-11-28T05:44:58;101459.81;;;-3.82;100.00
62712;BME280;48772;55.586;37.730;2022-11-28T05:47:28;101474.59;;;-3.82;100.00
62712;BME280;48772;55.586;37.730;2022-11-28T05:49:57;101470.25;;;-3.85;100.00
62712;BME280;48772;55.586;37.730;2022-11-28T05:52:23;101477.22;;;-3.81;100.00
62712;BME280;48772;55.586;37.730;2022-11-28T05:54:48;101477.22;;;-3.78;100.00
62712;BME280;48772;55.586;37.730;2022-11-28T05:57:15;101477.22;;;-3.75;100.00
62712;BME280;48772;55.586;37.730;2022-11-28T05:59:41;101477.22;;;-3.75;100.00
62712;BME280;48772;55.586;37.730;2022-11-28T06:02:07;101479.00;;;-3.75;100.00
62712;BME280;48772;55.586;37.730;2022-11-28T06:04:36;101489.44;;;-3.74;100.00
62712;BME280;48772;55.586;37.730;2022-11-28T06:07:31;101485.94;;;-3.74;100.00
62712;BME280;48772;55.586;37.730;2022-11-28T06:09:57;101488.59;;;-3.70;100.00
62712;BME280;48772;55.586;37.730;2022-11-28T06:12:46;101461.56;;;-3.84;100.00
62712;BME280;48772;55.586;37.730;2022-11-28T06:15:50;101482.47;;;-3.70;100.00
62712;BME280;48772;55.586;37.730;2022-11-28T06:21:20;101482.53;;;-3.64;100.00
62712;BME280;48772;55.586;37.730;2022-11-28T06:23:46;101488.59;;;-3.62;100.00
62712;BME280;48772;55.586;37.730;2022-11-28T06:26:14;101490.34;;;-3.64;100.00
62712;BME280;48772;55.586;37.730;2022-11-28T06:28:43;101492.13;;;-3.59;100.00
62712;BME280;48772;55.586;37.730;2022-11-28T06:31:44;101488.66;;;-3.56;100.00
62712;BME280;48772;55.586;37.730;2022-11-28T06:34:43;101494.69;;;-3.62;100.00
62712;BME280;48772;55.586;37.730;2022-11-28T06:37:48;101496.47;;;-3.58;100.00
62712;BME280;48772;55.586;37.730;2022-11-28T06:40:40;101499.91;;;-3.62;100.00
62712;BME280;48772;55.586;37.730;2022-11-28T06:43:18;101498.19;;;-3.60;100.00
62712;BME280;48772;55.586;37.730;2022-11-28T06:45:58;101499.97;;;-3.53;100.00
62712;BME280;48772;55.586;37.730;2022-11-28T06:48:29;101492.13;;;-3.53;100.00
62712;BME280;48772;55.586;37.730;2022-11-28T06:51:04;101495.59;;;-3.58;100.00
62712;BME280;48772;55.586;37.730;2022-11-28T07:02:03;101494.75;;;-3.57;100.00
62712;BME280;48772;55.586;37.730;2022-11-28T07:08:06;101501.69;;;-3.58;100.00
62712;BME280;48772;55.586;37.730;2022-11-28T07:13:59;101504.31;;;-3.55;100.00
62712;BME280;48772;55.586;37.730;2022-11-28T07:16:27;101501.72;;;-3.47;100.00
62712;BME280;48772;55.586;37.730;2022-11-28T07:18:58;101501.72;;;-3.53;100.00
62712;BME280;48772;55.586;37.730;2022-11-28T07:21:26;101503.50;;;-3.46;100.00
62712;BME280;48772;55.586;37.730;2022-11-28T07:24:21;101508.72;;;-3.46;100.00
62712;BME280;48772;55.586;37.730;2022-11-28T07:31:04;101506.09;;;-3.46;100.00
62712;BME280;48772;55.586;37.730;2022-11-28T07:34:41;101506.97;;;-3.46;100.00
62712;BME280;48772;55.586;37.730;2022-11-28T07:37:32;101513.88;;;-3.51;100.00
62712;BME280;48772;55.586;37.730;2022-11-28T07:44:00;101519.09;;;-3.52;100.00
62712;BME280;48772;55.586;37.730;2022-11-28T07:50:38;101522.59;;;-3.52;100.00
62712;BME280;48772;55.586;37.730;2022-11-28T07:53:04;101516.47;;;-3.55;100.00
62712;BME280;48772;55.586;37.730;2022-11-28T07:55:33;101512.97;;;-3.56;100.00
62712;BME280;48772;55.586;37.730;2022-11-28T07:57:59;101511.19;;;-3.61;100.00
62712;BME280;48772;55.586;37.730;2022-11-28T08:04:34;101526.84;;;-3.66;100.00
62712;BME280;48772;55.586;37.730;2022-11-28T08:07:03;101532.03;;;-3.69;100.00
62712;BME280;48772;55.586;37.730;2022-11-28T08:10:34;101536.34;;;-3.68;100.00
62712;BME280;48772;55.586;37.730;2022-11-28T08:13:16;101535.50;;;-3.65;100.00
62712;BME280;48772;55.586;37.730;2022-11-28T08:16:06;101533.78;;;-3.63;100.00
62712;BME280;48772;55.586;37.730;2022-11-28T08:18:34;101538.19;;;-3.56;100.00
62712;BME280;48772;55.586;37.730;2022-11-28T08:21:33;101528.59;;;-3.62;100.00
62712;BME280;48772;55.586;37.730;2022-11-28T08:24:09;101535.56;;;-3.59;100.00
62712;BME280;48772;55.586;37.730;2022-11-28T08:26:36;101532.06;;;-3.58;100.00
62712;BME280;48772;55.586;37.730;2022-11-28T08:29:02;101535.59;;;-3.50;100.00
62712;BME280;48772;55.586;37.730;2022-11-28T08:31:32;101533.88;;;-3.51;100.00
62712;BME280;48772;55.586;37.730;2022-11-28T08:33:59;101533.00;;;-3.53;100.00
62712;BME280;48772;55.586;37.730;2022-11-28T08:36:26;101530.38;;;-3.56;100.00
62712;BME280;48772;55.586;37.730;2022-11-28T08:38:53;101538.19;;;-3.58;100.00
62712;BME280;48772;55.586;37.730;2022-11-28T08:41:20;101550.34;;;-3.55;100.00
62712;BME280;48772;55.586;37.730;2022-11-28T08:43:48;101547.75;;;-3.55;100.00
62712;BME280;48772;55.586;37.730;2022-11-28T08:46:15;101552.09;;;-3.54;100.00
62712;BME280;48772;55.586;37.730;2022-11-28T08:48:42;101559.09;;;-3.52;100.00
62712;BME280;48772;55.586;37.730;2022-11-28T08:51:13;101554.72;;;-3.51;100.00
62712;BME280;48772;55.586;37.730;2022-11-28T08:53:39;101559.94;;;-3.53;100.00
62712;BME280;48772;55.586;37.730;2022-11-28T08:56:05;101560.88;;;-3.42;100.00
62712;BME280;48772;55.586;37.730;2022-11-28T08:58:33;101557.34;;;-3.50;100.00
62712;BME280;48772;55.586;37.730;2022-11-28T09:01:02;101552.13;;;-3.50;100.00
62712;BME280;48772;55.586;37.730;2022-11-28T09:03:40;101557.38;;;-3.47;100.00
62712;BME280;48772;55.586;37.730;2022-11-28T09:06:06;101557.38;;;-3.45;100.00
62712;BME280;48772;55.586;37.730;2022-11-28T09:08:40;101558.28;;;-3.40;100.00
62712;BME280;48772;55.586;37.730;2022-11-28T09:11:15;101559.13;;;-3.42;100.00
62712;BME280;48772;55.586;37.730;2022-11-28T09:13:45;101549.63;;;-3.34;100.00
62712;BME280;48772;55.586;37.730;2022-11-28T09:16:21;101552.22;;;-3.36;100.00
62712;BME280;48772;55.586;37.730;2022-11-28T09:19:02;101557.41;;;-3.40;100.00
62712;BME280;48772;55.586;37.730;2022-11-28T09:21:38;101567.84;;;-3.38;100.00
62712;BME280;48772;55.586;37.730;2022-11-28T09:24:07;101555.72;;;-3.34;100.00
62712;BME280;48772;55.586;37.730;2022-11-28T09:26:33;101560.94;;;-3.34;100.00
62712;BME280;48772;55.586;37.730;2022-11-28T09:29:01;101548.75;;;-3.36;100.00
62712;BME280;48772;55.586;37.730;2022-11-28T09:31:30;101550.53;;;-3.29;100.00
62712;BME280;48772;55.586;37.730;2022-11-28T09:33:56;101562.72;;;-3.25;100.00
62712;BME280;48772;55.586;37.730;2022-11-28T09:36:23;101555.78;;;-3.19;100.00
62712;BME280;48772;55.586;37.730;2022-11-28T09:38:49;101554.03;;;-3.24;100.00
62712;BME280;48772;55.586;37.730;2022-11-28T09:43:51;101560.97;;;-3.26;100.00
62712;BME280;48772;55.586;37.730;2022-11-28T09:46:25;101560.94;;;-3.32;100.00
62712;BME280;48772;55.586;37.730;2022-11-28T09:48:54;101553.97;;;-3.33;100.00
62712;BME280;48772;55.586;37.730;2022-11-28T09:57:02;101554.88;;;-3.30;100.00
62712;BME280;48772;55.586;37.730;2022-11-28T09:59:34;101553.06;;;-3.38;100.00
62712;BME280;48772;55.586;37.730;2022-11-28T10:04:41;101558.28;;;-3.37;100.00
62712;BME280;48772;55.586;37.730;2022-11-28T10:14:56;101543.53;;;-3.33;100.00
62712;BME280;48772;55.586;37.730;2022-11-28T10:20:05;101547.06;;;-3.22;100.00
62712;BME280;48772;55.586;37.730;2022-11-28T10:22:36;101543.59;;;-3.24;100.00
62712;BME280;48772;55.586;37.730;2022-11-28T10:25:06;101540.97;;;-3.27;100.00
62712;BME280;48772;55.586;37.730;2022-11-28T10:27:36;101550.56;;;-3.22;100.00
62712;BME280;48772;55.586;37.730;2022-11-28T10:30:03;101542.69;;;-3.26;100.00
62712;BME280;48772;55.586;37.730;2022-11-28T10:32:39;101547.84;;;-3.42;100.00
62712;BME280;48772;55.586;37.730;2022-11-28T10:35:08;101545.28;;;-3.35;100.00
62712;BME280;48772;55.586;37.730;2022-11-28T10:37:36;101546.13;;;-3.36;100.00
62712;BME280;48772;55.586;37.730;2022-11-28T10:42:46;101550.44;;;-3.40;100.00
62712;BME280;48772;55.586;37.730;2022-11-28T10:58:44;101541.66;;;-3.59;100.00
62712;BME280;48772;55.586;37.730;2022-11-28T11:01:13;101536.44;;;-3.56;100.00
62712;BME280;48772;55.586;37.730;2022-11-28T11:03:38;101539.88;;;-3.60;100.00
62712;BME280;48772;55.586;37.730;2022-11-28T11:06:05;101548.63;;;-3.56;100.00
62712;BME280;48772;55.586;37.730;2022-11-28T11:08:35;101541.59;;;-3.65;100.00
62712;BME280;48772;55.586;37.730;2022-11-28T11:11:04;101548.56;;;-3.62;100.00
62712;BME280;48772;55.586;37.730;2022-11-28T11:13:32;101545.03;;;-3.72;100.00
62712;BME280;48772;55.586;37.730;2022-11-28T11:16:03;101552.03;;;-3.65;100.00
62712;BME280;48772;55.586;37.730;2022-11-28T11:18:31;101557.28;;;-3.60;100.00
62712;BME280;48772;55.586;37.730;2022-11-28T11:21:08;101561.59;;;-3.62;100.00
62712;BME280;48772;55.586;37.730;2022-11-28T11:23:34;101559.03;;;-3.59;100.00
62712;BME280;48772;55.586;37.730;2022-11-28T11:26:00;101559.91;;;-3.59;100.00
62712;BME280;48772;55.586;37.730;2022-11-28T11:28:37;101556.44;;;-3.55;100.00
62712;BME280;48772;55.586;37.730;2022-11-28T11:31:04;101553.84;;;-3.55;100.00
62712;BME280;48772;55.586;37.730;2022-11-28T11:33:35;101562.53;;;-3.53;100.00
62712;BME280;48772;55.586;37.730;2022-11-28T11:36:01;101559.06;;;-3.49;100.00
62712;BME280;48772;55.586;37.730;2022-11-28T11:38:28;101564.25;;;-3.58;100.00
62712;BME280;48772;55.586;37.730;2022-11-28T11:40:55;101561.66;;;-3.56;100.00
62712;BME280;48772;55.586;37.730;2022-11-28T11:43:26;101567.72;;;-3.59;100.00
62712;BME280;48772;55.586;37.730;2022-11-28T11:46:11;101561.59;;;-3.62;100.00
62712;BME280;48772;55.586;37.730;2022-11-28T11:48:41;101565.09;;;-3.62;100.00
62712;BME280;48772;55.586;37.730;2022-11-28T11:51:24;101566.81;;;-3.61;100.00
62712;BME280;48772;55.586;37.730;2022-11-28T11:56:35;101571.22;;;-3.55;100.00
62712;BME280;48772;55.586;37.730;2022-11-28T11:59:02;101579.91;;;-3.55;100.00
62712;BME280;48772;55.586;37.730;2022-11-28T12:01:29;101584.31;;;-3.45;100.00
62712;BME280;48772;55.586;37.730;2022-11-28T12:04:04;101579.09;;;-3.43;100.00
62712;BME280;48772;55.586;37.730;2022-11-28T12:06:33;101583.38;;;-3.53;100.00
62712;BME280;48772;55.586;37.730;2022-11-28T12:09:06;101590.41;;;-3.46;100.00
62712;BME280;48772;55.586;37.730;2022-11-28T12:11:38;101583.34;;;-3.56;100.00
62712;BME280;48772;55.586;37.730;2022-11-28T12:30:14;101585.03;;;-3.64;100.00
62712;BME280;48772;55.586;37.730;2022-11-28T12:45:41;101605.84;;;-3.73;100.00
62712;BME280;48772;55.586;37.730;2022-11-28T12:50:44;101608.34;;;-3.85;100.00
62712;BME280;48772;55.586;37.730;2022-11-28T12:55:53;101609.97;;;-3.94;100.00
62712;BME280;48772;55.586;37.730;2022-11-28T12:58:41;101611.69;;;-3.98;100.00
62712;BME280;48772;55.586;37.730;2022-11-28T13:04:04;101609.13;;;-3.90;100.00
62712;BME280;48772;55.586;37.730;2022-11-28T13:06:33;101618.69;;;-3.92;100.00
62712;BME280;48772;55.586;37.730;2022-11-28T13:09:05;101618.66;;;-3.95;100.00
62712;BME280;48772;55.586;37.730;2022-11-28T13:19:18;101615.94;;;-4.07;100.00
62712;BME280;48772;55.586;37.730;2022-11-28T13:24:38;101625.41;;;-4.15;100.00
62712;BME280;48772;55.586;37.730;2022-11-28T13:30:36;101625.31;;;-4.23;100.00
62712;BME280;48772;55.586;37.730;2022-11-28T13:35:25;101631.41;;;-4.24;100.00
62712;BME280;48772;55.586;37.730;2022-11-28T13:38:00;101620.13;;;-4.21;100.00
62712;BME280;48772;55.586;37.730;2022-11-28T13:40:36;101622.75;;;-4.20;100.00
62712;BME280;48772;55.586;37.730;2022-11-28T13:43:04;101622.72;;;-4.23;100.00
62712;BME280;48772;55.586;37.730;2022-11-28T13:45:35;101624.50;;;-4.19;100.00
62712;BME280;48772;55.586;37.730;2022-11-28T13:51:00;101628.84;;;-4.18;100.00
62712;BME280;48772;55.586;37.730;2022-11-28T13:53:26;101626.19;;;-4.24;100.00
62712;BME280;48772;55.586;37.730;2022-11-28T14:03:32;101626.22;;;-4.21;100.00
62712;BME280;48772;55.586;37.730;2022-11-28T14:06:00;101627.97;;;-4.20;100.00
62712;BME280;48772;55.586;37.730;2022-11-28T14:08:29;101628.84;;;-4.18;100.00
62712;BME280;48772;55.586;37.730;2022-11-28T14:21:09;101640.06;;;-4.25;100.00
62712;BME280;48772;55.586;37.730;2022-11-28T14:26:39;101645.28;;;-4.22;100.00
62712;BME280;48772;55.586;37.730;2022-11-28T14:28:58;101653.06;;;-4.28;100.00
62712;BME280;48772;55.586;37.730;2022-11-28T14:34:00;101659.19;;;-4.21;100.00
62712;BME280;48772;55.586;37.730;2022-11-28T14:36:30;101664.31;;;-4.29;100.00
62712;BME280;48772;55.586;37.730;2022-11-28T14:38:59;101652.22;;;-4.24;100.00
62712;BME280;48772;55.586;37.730;2022-11-28T14:41:27;101664.31;;;-4.29;100.00
62712;BME280;48772;55.586;37.730;2022-11-28T14:47:05;101658.13;;;-4.37;100.00
62712;BME280;48772;55.586;37.730;2022-11-28T14:49:31;101658.13;;;-4.38;100.00
62712;BME280;48772;55.586;37.730;2022-11-28T14:52:04;101645.94;;;-4.41;100.00
62712;BME280;48772;55.586;37.730;2022-11-28T14:54:40;101651.13;;;-4.42;100.00
62712;BME280;48772;55.586;37.730;2022-11-28T14:59:45;101650.19;;;-4.49;100.00
62712;BME280;48772;55.586;37.730;2022-11-28T15:10:07;101655.50;;;-4.38;100.00
62712;BME280;48772;55.586;37.730;2022-11-28T15:12:39;101646.03;;;-4.35;100.00
62712;BME280;48772;55.586;37.730;2022-11-28T15:15:11;101648.66;;;-4.33;100.00
62712;BME280;48772;55.586;37.730;2022-11-28T15:17:38;101640.88;;;-4.30;100.00
62712;BME280;48772;55.586;37.730;2022-11-28T15:20:08;101644.28;;;-4.33;100.00
62712;BME280;48772;55.586;37.730;2022-11-28T15:22:40;101632.97;;;-4.38;100.00
62712;BME280;48772;55.586;37.730;2022-11-28T15:25:25;101636.47;;;-4.36;100.00
62712;BME280;48772;55.586;37.730;2022-11-28T15:27:51;101635.59;;;-4.36;100.00
62712;BME280;48772;55.586;37.730;2022-11-28T15:30:19;101634.66;;;-4.40;100.00
62712;BME280;48772;55.586;37.730;2022-11-28T15:32:46;101623.34;;;-4.45;100.00
62712;BME280;48772;55.586;37.730;2022-11-28T15:35:12;101636.47;;;-4.36;100.00
62712;BME280;48772;55.586;37.730;2022-11-28T15:37:50;101647.69;;;-4.40;100.00
62712;BME280;48772;55.586;37.730;2022-11-28T15:40:22;101645.91;;;-4.44;100.00
62712;BME280;48772;55.586;37.730;2022-11-28T15:42:49;101652.91;;;-4.38;100.00
62712;BME280;48772;55.586;37.730;2022-11-28T15:45:21;101657.19;;;-4.43;100.00
62712;BME280;48772;55.586;37.730;2022-11-28T15:47:48;101649.47;;;-4.37;100.00
62712;BME280;48772;55.586;37.730;2022-11-28T15:50:19;101666.84;;;-4.35;100.00
62712;BME280;48772;55.586;37.730;2022-11-28T15:52:53;101668.56;;;-4.37;100.00
62712;BME280;48772;55.586;37.730;2022-11-28T15:55:21;101653.84;;;-4.35;100.00
62712;BME280;48772;55.586;37.730;2022-11-28T15:57:48;101664.25;;;-4.35;100.00
62712;BME280;48772;55.586;37.730;2022-11-28T16:00:14;101661.66;;;-4.35;100.00
62712;BME280;48772;55.586;37.730;2022-11-28T16:02:46;101653.88;;;-4.32;100.00
62712;BME280;48772;55.586;37.730;2022-11-28T16:05:16;101671.25;;;-4.31;100.00
62712;BME280;48772;55.586;37.730;2022-11-28T16:07:47;101660.88;;;-4.28;100.00
62712;BME280;48772;55.586;37.730;2022-11-28T16:12:45;101660.00;;;-4.27;100.00
62712;BME280;48772;55.586;37.730;2022-11-28T16:15:18;101653.88;;;-4.29;100.00
62712;BME280;48772;55.586;37.730;2022-11-28T16:17:44;101655.63;;;-4.31;100.00
62712;BME280;48772;55.586;37.730;2022-11-28T16:20:21;101655.66;;;-4.28;100.00
62712;BME280;48772;55.586;37.730;2022-11-28T16:22:48;101655.69;;;-4.25;100.00
62712;BME280;48772;55.586;37.730;2022-11-28T16:25:23;101660.03;;;-4.24;100.00
62712;BME280;48772;55.586;37.730;2022-11-28T16:28:35;101659.97;;;-4.28;100.00
62712;BME280;48772;55.586;37.730;2022-11-28T16:31:11;101655.69;;;-4.25;100.00
62712;BME280;48772;55.586;37.730;2022-11-28T16:34:14;101648.66;;;-4.32;100.00
62712;BME280;48772;55.586;37.730;2022-11-28T16:36:40;101656.44;;;-4.35;100.00
62712;BME280;48772;55.586;37.730;2022-11-28T16:39:12;101650.38;;;-4.34;100.00
62712;BME280;48772;55.586;37.730;2022-11-28T17:00:28;101657.34;;;-4.30;100.00
62712;BME280;48772;55.586;37.730;2022-11-28T17:15:19;101664.25;;;-4.35;100.00
62712;BME280;48772;55.586;37.730;2022-11-28T17:17:54;101661.63;;;-4.36;100.00
62712;BME280;48772;55.586;37.730;2022-11-28T17:20:36;101663.44;;;-4.29;100.00
62712;BME280;48772;55.586;37.730;2022-11-28T17:23:03;101663.50;;;-4.26;100.00
62712;BME280;48772;55.586;37.730;2022-11-28T17:25:54;101655.69;;;-4.25;100.00
62712;BME280;48772;55.586;37.730;2022-11-28T17:28:20;101665.22;;;-4.25;100.00
62712;BME280;48772;55.586;37.730;2022-11-28T17:31:23;101665.16;;;-4.30;100.00
62712;BME280;48772;55.586;37.730;2022-11-28T17:34:42;101661.75;;;-4.26;100.00
62712;BME280;48772;55.586;37.730;2022-11-28T17:38:28;101669.56;;;-4.26;100.00